sensor_id;sensor_type;location;lat;lon;timestamp;pressure;altitude;pressure_sealevel;temperature;humidity
59375;BME280;45172;55.006;73.460;2023-05-08T00:01:49;100307.59;;;13.98;42.45
59375;BME280;45172;55.006;73.460;2023-05-08T00:04:15;100315.59;;;14.03;42.49
59375;BME280;45172;55.006;73.460;2023-05-08T00:06:45;100312.94;;;14.04;42.54
59375;BME280;45172;55.006;73.460;2023-05-08T00:09:11;100321.81;;;14.11;42.08
59375;BME280;45172;55.006;73.460;2023-05-08T00:11:37;100312.06;;;14.16;42.56
59375;BME280;45172;55.006;73.460;2023-05-08T00:14:04;100318.28;;;14.20;42.13
59375;BME280;45172;55.006;73.460;2023-05-08T00:16:30;100314.72;;;14.25;42.01
59375;BME280;45172;55.006;73.460;2023-05-08T00:18:56;100312.94;;;14.31;42.12
59375;BME280;45172;55.006;73.460;2023-05-08T00:21:23;100326.25;;;14.43;41.33
59375;BME280;45172;55.006;73.460;2023-05-08T00:23:49;100317.34;;;14.57;41.41
59375;BME280;45172;55.006;73.460;2023-05-08T00:26:15;100305.78;;;14.62;40.89
59375;BME280;45172;55.006;73.460;2023-05-08T00:28:41;100304.03;;;14.77;40.92
59375;BME280;45172;55.006;73.460;2023-05-08T00:31:08;100324.47;;;14.83;41.01
59375;BME280;45172;55.006;73.460;2023-05-08T00:33:34;100328.88;;;14.95;40.36
59375;BME280;45172;55.006;73.460;2023-05-08T00:36:01;100332.38;;;15.04;40.61
59375;BME280;45172;55.006;73.460;2023-05-08T00:38:35;100306.59;;;15.03;41.23
59375;BME280;45172;55.006;73.460;2023-05-08T00:41:01;100326.13;;;15.18;40.73
59375;BME280;45172;55.006;73.460;2023-05-08T00:43:28;100318.06;;;15.27;40.59
59375;BME280;45172;55.006;73.460;2023-05-08T00:45:55;100327.81;;;15.36;39.83
59375;BME280;45172;55.006;73.460;2023-05-08T00:48:23;100323.34;;;15.44;40.22
59375;BME280;45172;55.006;73.460;2023-05-08T00:50:51;100317.94;;;15.57;39.76
59375;BME280;45172;55.006;73.460;2023-05-08T00:53:18;100313.44;;;15.64;39.88
59375;BME280;45172;55.006;73.460;2023-05-08T00:55:46;100319.66;;;15.69;39.23
59375;BME280;45172;55.006;73.460;2023-05-08T00:58:13;100319.56;;;15.83;39.13
59375;BME280;45172;55.006;73.460;2023-05-08T01:00:40;100310.59;;;15.93;38.50
59375;BME280;45172;55.006;73.460;2023-05-08T01:03:09;100316.81;;;15.98;39.53
59375;BME280;45172;55.006;73.460;2023-05-08T01:05:35;100319.38;;;16.12;38.57
59375;BME280;45172;55.006;73.460;2023-05-08T01:08:01;100330.81;;;16.30;38.53
59375;BME280;45172;55.006;73.460;2023-05-08T01:16:15;100333.88;;;16.85;37.92
59375;BME280;45172;55.006;73.460;2023-05-08T01:18:46;100322.06;;;17.05;37.11
59375;BME280;45172;55.006;73.460;2023-05-08T01:21:55;100335.31;;;17.16;37.20
59375;BME280;45172;55.006;73.460;2023-05-08T01:30:09;100335.25;;;17.88;36.29
59375;BME280;45172;55.006;73.460;2023-05-08T01:32:39;100334.06;;;18.11;35.61
59375;BME280;45172;55.006;73.460;2023-05-08T01:35:33;100331.09;;;18.28;35.46
59375;BME280;45172;55.006;73.460;2023-05-08T01:38:24;100319.06;;;18.52;35.61
59375;BME280;45172;55.006;73.460;2023-05-08T01:40:57;100328.47;;;18.75;34.28
59375;BME280;45172;55.006;73.460;2023-05-08T01:43:32;100321.88;;;18.93;34.46
59375;BME280;45172;55.006;73.460;2023-05-08T01:46:05;100324.44;;;19.02;34.30
59375;BME280;45172;55.006;73.460;2023-05-08T01:48:39;100333.25;;;19.09;34.29
59375;BME280;45172;55.006;73.460;2023-05-08T01:51:16;100330.34;;;19.19;33.93
59375;BME280;45172;55.006;73.460;2023-05-08T01:53:47;100329.41;;;19.23;35.00
59375;BME280;45172;55.006;73.460;2023-05-08T01:56:19;100326.59;;;19.27;34.21
59375;BME280;45172;55.006;73.460;2023-05-08T01:58:49;100317.66;;;19.27;34.37
59375;BME280;45172;55.006;73.460;2023-05-08T02:01:17;100334.59;;;19.29;34.17
59375;BME280;45172;55.006;73.460;2023-05-08T02:03:45;100331.81;;;19.35;34.14
59375;BME280;45172;55.006;73.460;2023-05-08T02:06:14;100336.31;;;19.35;34.13
59375;BME280;45172;55.006;73.460;2023-05-08T02:08:43;100323.72;;;19.37;34.03
59375;BME280;45172;55.006;73.460;2023-05-08T02:11:11;100324.53;;;19.40;34.17
59375;BME280;45172;55.006;73.460;2023-05-08T02:13:39;100328.91;;;19.44;34.39
59375;BME280;45172;55.006;73.460;2023-05-08T02:16:07;100338.88;;;19.39;33.64
59375;BME280;45172;55.006;73.460;2023-05-08T02:18:37;100333.53;;;19.38;33.88
59375;BME280;45172;55.006;73.460;2023-05-08T02:21:05;100334.38;;;19.40;34.49
59375;BME280;45172;55.006;73.460;2023-05-08T02:23:32;100332.69;;;19.37;34.59
59375;BME280;45172;55.006;73.460;2023-05-08T02:26:01;100353.16;;;19.41;34.40
59375;BME280;45172;55.006;73.460;2023-05-08T02:28:28;100356.56;;;19.50;34.62
59375;BME280;45172;55.006;73.460;2023-05-08T02:30:57;100341.44;;;19.46;33.68
59375;BME280;45172;55.006;73.460;2023-05-08T02:33:26;100365.53;;;19.49;33.06
59375;BME280;45172;55.006;73.460;2023-05-08T02:35:54;100355.84;;;19.41;32.70
59375;BME280;45172;55.006;73.460;2023-05-08T02:38:22;100355.97;;;19.35;32.58
59375;BME280;45172;55.006;73.460;2023-05-08T02:40:53;100341.81;;;19.27;32.69
59375;BME280;45172;55.006;73.460;2023-05-08T02:43:20;100356.16;;;19.26;33.66
59375;BME280;45172;55.006;73.460;2023-05-08T02:46:20;100344.63;;;19.21;33.39
59375;BME280;45172;55.006;73.460;2023-05-08T02:49:00;100350.16;;;19.14;33.04
59375;BME280;45172;55.006;73.460;2023-05-08T02:51:36;100351.75;;;19.23;33.51
59375;BME280;45172;55.006;73.460;2023-05-08T02:54:18;100353.38;;;19.32;33.63
59375;BME280;45172;55.006;73.460;2023-05-08T02:59:58;100360.66;;;19.68;32.86
59375;BME280;45172;55.006;73.460;2023-05-08T03:02:28;100357.72;;;19.79;32.81
59375;BME280;45172;55.006;73.460;2023-05-08T03:05:01;100361.88;;;19.95;32.74
59375;BME280;45172;55.006;73.460;2023-05-08T03:07:28;100355.31;;;20.07;33.02
59375;BME280;45172;55.006;73.460;2023-05-08T03:10:02;100381.72;;;20.28;32.47
59375;BME280;45172;55.006;73.460;2023-05-08T03:12:32;100369.88;;;20.36;32.57
59375;BME280;45172;55.006;73.460;2023-05-08T03:17:56;100369.19;;;20.26;32.56
59375;BME280;45172;55.006;73.460;2023-05-08T03:20:25;100355.41;;;20.40;32.88
59375;BME280;45172;55.006;73.460;2023-05-08T03:22:53;100348.06;;;20.47;32.97
59375;BME280;45172;55.006;73.460;2023-05-08T03:25:20;100356.59;;;20.63;33.49
59375;BME280;45172;55.006;73.460;2023-05-08T03:27:48;100354.25;;;20.87;32.49
59375;BME280;45172;55.006;73.460;2023-05-08T03:30:15;100362.47;;;21.14;33.24
59375;BME280;45172;55.006;73.460;2023-05-08T03:32:45;100346.28;;;21.16;32.33
59375;BME280;45172;55.006;73.460;2023-05-08T03:35:12;100370.28;;;21.24;32.64
59375;BME280;45172;55.006;73.460;2023-05-08T03:37:40;100356.75;;;21.27;31.65
59375;BME280;45172;55.006;73.460;2023-05-08T03:40:08;100355.81;;;21.28;31.66
59375;BME280;45172;55.006;73.460;2023-05-08T03:42:34;100343.88;;;21.37;32.02
59375;BME280;45172;55.006;73.460;2023-05-08T03:47:28;100371.22;;;21.54;31.45
59375;BME280;45172;55.006;73.460;2023-05-08T03:49:55;100358.59;;;21.55;31.72
59375;BME280;45172;55.006;73.460;2023-05-08T03:52:21;100363.81;;;21.61;31.58
59375;BME280;45172;55.006;73.460;2023-05-08T03:54:48;100359.84;;;21.74;31.13
59375;BME280;45172;55.006;73.460;2023-05-08T03:57:14;100382.09;;;21.81;31.86
59375;BME280;45172;55.006;73.460;2023-05-08T03:59:53;100371.97;;;21.89;31.78
59375;BME280;45172;55.006;73.460;2023-05-08T04:02:37;100382.03;;;21.84;31.42
59375;BME280;45172;55.006;73.460;2023-05-08T04:05:13;100371.78;;;21.96;31.10
59375;BME280;45172;55.006;73.460;2023-05-08T04:07:52;100366.38;;;21.96;31.15
59375;BME280;45172;55.006;73.460;2023-05-08T04:10:30;100361.63;;;22.04;31.62
59375;BME280;45172;55.006;73.460;2023-05-08T04:15:35;100374.03;;;22.38;31.67
59375;BME280;45172;55.006;73.460;2023-05-08T04:18:16;100371.94;;;22.47;30.94
59375;BME280;45172;55.006;73.460;2023-05-08T04:20:46;100375.69;;;22.41;30.98
59375;BME280;45172;55.006;73.460;2023-05-08T04:23:15;100373.78;;;22.44;31.39
59375;BME280;45172;55.006;73.460;2023-05-08T04:25:43;100372.22;;;22.37;30.99
59375;BME280;45172;55.006;73.460;2023-05-08T04:28:10;100375.00;;;22.36;31.28
59375;BME280;45172;55.006;73.460;2023-05-08T04:30:36;100383.44;;;22.25;31.39
59375;BME280;45172;55.006;73.460;2023-05-08T04:33:04;100392.47;;;22.24;31.83
59375;BME280;45172;55.006;73.460;2023-05-08T04:35:32;100383.47;;;22.23;31.75
59375;BME280;45172;55.006;73.460;2023-05-08T04:37:59;100387.31;;;22.16;32.44
59375;BME280;45172;55.006;73.460;2023-05-08T04:40:25;100389.72;;;21.97;33.26
59375;BME280;45172;55.006;73.460;2023-05-08T04:42:53;100393.53;;;21.89;33.39
59375;BME280;45172;55.006;73.460;2023-05-08T04:45:19;100397.88;;;21.95;33.08
59375;BME280;45172;55.006;73.460;2023-05-08T04:47:46;100394.38;;;21.92;33.31
59375;BME280;45172;55.006;73.460;2023-05-08T04:50:12;100401.75;;;21.85;33.36
59375;BME280;45172;55.006;73.460;2023-05-08T04:52:38;100393.94;;;21.77;33.38
59375;BME280;45172;55.006;73.460;2023-05-08T04:55:05;100400.03;;;21.82;34.00
59375;BME280;45172;55.006;73.460;2023-05-08T04:57:32;100412.31;;;21.93;34.87
59375;BME280;45172;55.006;73.460;2023-05-08T04:59:58;100412.16;;;21.99;34.16
59375;BME280;45172;55.006;73.460;2023-05-08T05:02:25;100410.41;;;21.96;34.42
59375;BME280;45172;55.006;73.460;2023-05-08T05:04:51;100423.94;;;21.95;34.77
59375;BME280;45172;55.006;73.460;2023-05-08T05:07:17;100422.69;;;21.76;35.48
59375;BME280;45172;55.006;73.460;2023-05-08T05:09:43;100412.44;;;21.58;36.02
59375;BME280;45172;55.006;73.460;2023-05-08T05:12:09;100417.75;;;21.59;35.75
59375;BME280;45172;55.006;73.460;2023-05-08T05:14:35;100409.97;;;21.48;35.97
59375;BME280;45172;55.006;73.460;2023-05-08T05:17:01;100434.56;;;21.38;35.90
59375;BME280;45172;55.006;73.460;2023-05-08T05:19:27;100422.56;;;21.16;35.94
59375;BME280;45172;55.006;73.460;2023-05-08T05:21:53;100429.53;;;20.90;36.00
59375;BME280;45172;55.006;73.460;2023-05-08T05:24:20;100432.00;;;20.98;36.11
59375;BME280;45172;55.006;73.460;2023-05-08T05:26:45;100432.41;;;21.17;35.78
59375;BME280;45172;55.006;73.460;2023-05-08T05:29:11;100432.41;;;21.17;35.68
59375;BME280;45172;55.006;73.460;2023-05-08T05:31:37;100431.94;;;21.01;36.47
59375;BME280;45172;55.006;73.460;2023-05-08T05:34:03;100435.16;;;21.16;36.11
59375;BME280;45172;55.006;73.460;2023-05-08T05:36:29;100444.22;;;21.12;35.64
59375;BME280;45172;55.006;73.460;2023-05-08T05:38:55;100444.38;;;21.05;35.51
59375;BME280;45172;55.006;73.460;2023-05-08T05:41:21;100442.16;;;20.88;35.75
59375;BME280;45172;55.006;73.460;2023-05-08T05:43:47;100450.06;;;20.94;35.65
59375;BME280;45172;55.006;73.460;2023-05-08T05:46:13;100444.97;;;20.84;35.67
59375;BME280;45172;55.006;73.460;2023-05-08T05:48:39;100443.97;;;20.86;36.19
59375;BME280;45172;55.006;73.460;2023-05-08T05:51:05;100447.47;;;20.90;35.99
59375;BME280;45172;55.006;73.460;2023-05-08T05:53:31;100442.91;;;20.93;36.25
59375;BME280;45172;55.006;73.460;2023-05-08T05:55:57;100465.31;;;20.96;35.56
59375;BME280;45172;55.006;73.460;2023-05-08T05:58:24;100454.44;;;20.99;35.46
59375;BME280;45172;55.006;73.460;2023-05-08T06:00:50;100456.44;;;20.92;35.32
59375;BME280;45172;55.006;73.460;2023-05-08T06:03:16;100448.97;;;21.02;35.38
59375;BME280;45172;55.006;73.460;2023-05-08T06:05:42;100447.47;;;21.25;34.54
59375;BME280;45172;55.006;73.460;2023-05-08T06:08:11;100449.03;;;21.33;34.99
59375;BME280;45172;55.006;73.460;2023-05-08T06:10:37;100454.94;;;21.46;34.69
59375;BME280;45172;55.006;73.460;2023-05-08T06:13:03;100462.06;;;21.49;34.61
59375;BME280;45172;55.006;73.460;2023-05-08T06:15:29;100464.72;;;21.17;34.57
59375;BME280;45172;55.006;73.460;2023-05-08T06:17:54;100454.44;;;20.99;35.07
59375;BME280;45172;55.006;73.460;2023-05-08T06:20:20;100461.19;;;21.15;34.51
59375;BME280;45172;55.006;73.460;2023-05-08T06:22:47;100455.63;;;21.21;33.97
59375;BME280;45172;55.006;73.460;2023-05-08T06:25:12;100456.41;;;21.27;33.34
59375;BME280;45172;55.006;73.460;2023-05-08T06:27:38;100457.22;;;21.30;34.14
59375;BME280;45172;55.006;73.460;2023-05-08T06:30:05;100465.19;;;21.33;33.55
59375;BME280;45172;55.006;73.460;2023-05-08T06:32:35;100465.66;;;21.49;33.82
59375;BME280;45172;55.006;73.460;2023-05-08T06:35:02;100469.97;;;21.57;34.13
59375;BME280;45172;55.006;73.460;2023-05-08T06:37:28;100467.50;;;21.47;33.13
59375;BME280;45172;55.006;73.460;2023-05-08T06:39:54;100464.22;;;21.36;33.79
59375;BME280;45172;55.006;73.460;2023-05-08T06:42:20;100466.47;;;21.53;34.08
59375;BME280;45172;55.006;73.460;2023-05-08T06:44:46;100463.63;;;21.58;33.06
59375;BME280;45172;55.006;73.460;2023-05-08T06:47:13;100466.09;;;21.66;32.82
59375;BME280;45172;55.006;73.460;2023-05-08T06:49:39;100459.66;;;21.71;32.80
59375;BME280;45172;55.006;73.460;2023-05-08T06:52:05;100466.31;;;21.58;32.61
59375;BME280;45172;55.006;73.460;2023-05-08T06:54:31;100459.03;;;21.61;32.36
59375;BME280;45172;55.006;73.460;2023-05-08T06:56:57;100461.59;;;21.66;32.60
59375;BME280;45172;55.006;73.460;2023-05-08T06:59:23;100463.09;;;21.78;32.48
59375;BME280;45172;55.006;73.460;2023-05-08T07:01:49;100455.28;;;21.69;32.34
59375;BME280;45172;55.006;73.460;2023-05-08T07:04:15;100442.31;;;21.82;32.88
59375;BME280;45172;55.006;73.460;2023-05-08T07:06:41;100454.72;;;21.87;32.67
59375;BME280;45172;55.006;73.460;2023-05-08T07:09:11;100451.84;;;21.94;32.79
59375;BME280;45172;55.006;73.460;2023-05-08T07:11:38;100450.06;;;22.23;32.45
59375;BME280;45172;55.006;73.460;2023-05-08T07:14:04;100455.66;;;22.45;31.98
59375;BME280;45172;55.006;73.460;2023-05-08T07:16:29;100450.28;;;22.43;31.83
59375;BME280;45172;55.006;73.460;2023-05-08T07:18:56;100446.66;;;22.44;31.82
59375;BME280;45172;55.006;73.460;2023-05-08T07:21:22;100445.63;;;22.50;31.82
59375;BME280;45172;55.006;73.460;2023-05-08T07:23:48;100449.81;;;22.59;32.31
59375;BME280;45172;55.006;73.460;2023-05-08T07:26:16;100450.34;;;22.70;31.90
59375;BME280;45172;55.006;73.460;2023-05-08T07:28:44;100445.81;;;22.71;31.90
59375;BME280;45172;55.006;73.460;2023-05-08T07:31:10;100452.13;;;22.71;31.28
59375;BME280;45172;55.006;73.460;2023-05-08T07:33:36;100452.28;;;22.67;31.72
59375;BME280;45172;55.006;73.460;2023-05-08T07:36:02;100445.41;;;22.56;32.23
59375;BME280;45172;55.006;73.460;2023-05-08T07:38:28;100455.63;;;22.74;31.88
59375;BME280;45172;55.006;73.460;2023-05-08T07:40:54;100451.59;;;22.87;31.91
59375;BME280;45172;55.006;73.460;2023-05-08T07:43:22;100456.84;;;22.92;31.84
59375;BME280;45172;55.006;73.460;2023-05-08T07:45:48;100447.78;;;23.20;31.24
59375;BME280;45172;55.006;73.460;2023-05-08T07:48:14;100450.34;;;23.23;32.15
59375;BME280;45172;55.006;73.460;2023-05-08T07:50:41;100464.84;;;23.20;30.90
59375;BME280;45172;55.006;73.460;2023-05-08T07:53:07;100461.16;;;23.23;31.34
59375;BME280;45172;55.006;73.460;2023-05-08T07:55:32;100452.66;;;23.35;30.85
59375;BME280;45172;55.006;73.460;2023-05-08T07:57:59;100457.78;;;23.43;30.98
59375;BME280;45172;55.006;73.460;2023-05-08T08:00:25;100458.53;;;23.47;30.62
59375;BME280;45172;55.006;73.460;2023-05-08T08:02:54;100458.44;;;23.50;30.23
59375;BME280;45172;55.006;73.460;2023-05-08T08:05:20;100468.09;;;23.32;30.28
59375;BME280;45172;55.006;73.460;2023-05-08T08:07:46;100457.78;;;23.43;30.37
59375;BME280;45172;55.006;73.460;2023-05-08T08:10:12;100455.19;;;23.40;30.56
59375;BME280;45172;55.006;73.460;2023-05-08T08:12:39;100462.28;;;23.17;30.42
59375;BME280;45172;55.006;73.460;2023-05-08T08:15:05;100466.53;;;23.24;30.70
59375;BME280;45172;55.006;73.460;2023-05-08T08:17:31;100466.63;;;23.21;31.05
59375;BME280;45172;55.006;73.460;2023-05-08T08:19:57;100470.94;;;23.27;30.40
59375;BME280;45172;55.006;73.460;2023-05-08T08:22:24;100468.34;;;23.24;29.93
59375;BME280;45172;55.006;73.460;2023-05-08T08:24:50;100463.38;;;23.11;30.24
59375;BME280;45172;55.006;73.460;2023-05-08T08:27:17;100470.09;;;22.99;30.29
59375;BME280;45172;55.006;73.460;2023-05-08T08:29:42;100462.81;;;23.02;29.67
59375;BME280;45172;55.006;73.460;2023-05-08T08:32:10;100450.84;;;23.09;30.29
59375;BME280;45172;55.006;73.460;2023-05-08T08:34:36;100465.56;;;23.00;30.33
59375;BME280;45172;55.006;73.460;2023-05-08T08:37:06;100459.66;;;23.14;30.50
59375;BME280;45172;55.006;73.460;2023-05-08T08:39:33;100465.84;;;22.92;30.10
59375;BME280;45172;55.006;73.460;2023-05-08T08:42:00;100460.84;;;23.07;30.09
59375;BME280;45172;55.006;73.460;2023-05-08T08:44:26;100470.38;;;23.17;29.79
59375;BME280;45172;55.006;73.460;2023-05-08T08:46:52;100462.53;;;23.09;29.90
59375;BME280;45172;55.006;73.460;2023-05-08T08:49:24;100467.84;;;23.12;30.39
59375;BME280;45172;55.006;73.460;2023-05-08T08:51:58;100470.88;;;23.03;29.99
59375;BME280;45172;55.006;73.460;2023-05-08T08:54:28;100472.56;;;23.06;30.60
59375;BME280;45172;55.006;73.460;2023-05-08T08:56:54;100470.16;;;23.23;30.40
59375;BME280;45172;55.006;73.460;2023-05-08T08:59:24;100462.16;;;23.47;30.42
59375;BME280;45172;55.006;73.460;2023-05-08T09:02:10;100455.75;;;23.50;29.43
59375;BME280;45172;55.006;73.460;2023-05-08T09:04:37;100450.09;;;23.56;29.64
59375;BME280;45172;55.006;73.460;2023-05-08T09:07:04;100444.34;;;23.65;29.75
59375;BME280;45172;55.006;73.460;2023-05-08T09:09:32;100451.94;;;23.79;30.16
59375;BME280;45172;55.006;73.460;2023-05-08T09:12:02;100463.94;;;23.72;29.35
59375;BME280;45172;55.006;73.460;2023-05-08T09:14:29;100474.28;;;23.35;29.56
59375;BME280;45172;55.006;73.460;2023-05-08T09:16:55;100467.13;;;23.34;29.91
59375;BME280;45172;55.006;73.460;2023-05-08T09:19:22;100460.00;;;23.32;30.03
59375;BME280;45172;55.006;73.460;2023-05-08T09:21:48;100464.25;;;23.12;29.50
59375;BME280;45172;55.006;73.460;2023-05-08T09:24:17;100461.13;;;22.72;29.81
59375;BME280;45172;55.006;73.460;2023-05-08T09:26:43;100450.69;;;22.61;30.30
59375;BME280;45172;55.006;73.460;2023-05-08T09:29:15;100454.16;;;22.65;30.02
59375;BME280;45172;55.006;73.460;2023-05-08T09:31:42;100463.03;;;22.68;30.62
59375;BME280;45172;55.006;73.460;2023-05-08T09:34:10;100468.50;;;22.65;29.83
59375;BME280;45172;55.006;73.460;2023-05-08T09:36:37;100459.59;;;22.63;29.50
59375;BME280;45172;55.006;73.460;2023-05-08T09:39:09;100456.84;;;22.65;29.99
59375;BME280;45172;55.006;73.460;2023-05-08T09:41:37;100455.56;;;22.77;29.04
59375;BME280;45172;55.006;73.460;2023-05-08T09:44:05;100460.84;;;22.80;29.04
59375;BME280;45172;55.006;73.460;2023-05-08T09:46:33;100458.25;;;22.77;28.84
59375;BME280;45172;55.006;73.460;2023-05-08T09:49:01;100462.13;;;22.68;28.45
59375;BME280;45172;55.006;73.460;2023-05-08T09:51:29;100456.69;;;22.69;28.82
59375;BME280;45172;55.006;73.460;2023-05-08T09:53:57;100466.19;;;22.81;28.25
59375;BME280;45172;55.006;73.460;2023-05-08T09:58:58;100471.16;;;22.94;27.25
59375;BME280;45172;55.006;73.460;2023-05-08T10:01:32;100475.63;;;22.95;27.15
59375;BME280;45172;55.006;73.460;2023-05-08T10:04:00;100467.47;;;22.96;26.48
59375;BME280;45172;55.006;73.460;2023-05-08T10:06:27;100477.25;;;23.01;26.26
59375;BME280;45172;55.006;73.460;2023-05-08T10:09:25;100481.09;;;22.93;26.77
59375;BME280;45172;55.006;73.460;2023-05-08T10:11:52;100476.53;;;22.95;27.29
59375;BME280;45172;55.006;73.460;2023-05-08T10:14:23;100483.97;;;22.89;27.31
59375;BME280;45172;55.006;73.460;2023-05-08T10:16:51;100489.72;;;22.78;26.93
59375;BME280;45172;55.006;73.460;2023-05-08T10:19:20;100473.69;;;22.73;26.44
59375;BME280;45172;55.006;73.460;2023-05-08T10:21:48;100470.19;;;22.69;27.14
59375;BME280;45172;55.006;73.460;2023-05-08T10:24:19;100480.03;;;22.42;26.68
59375;BME280;45172;55.006;73.460;2023-05-08T10:27:16;100483.69;;;22.11;26.85
59375;BME280;45172;55.006;73.460;2023-05-08T10:32:14;100478.31;;;22.11;26.22
59375;BME280;45172;55.006;73.460;2023-05-08T10:34:43;100458.88;;;21.98;26.47
59375;BME280;45172;55.006;73.460;2023-05-08T10:37:11;100464.25;;;21.99;26.53
59375;BME280;45172;55.006;73.460;2023-05-08T10:39:39;100475.94;;;22.00;26.12
59375;BME280;45172;55.006;73.460;2023-05-08T10:42:06;100475.13;;;21.96;25.92
59375;BME280;45172;55.006;73.460;2023-05-08T10:44:32;100481.13;;;22.06;25.83
59375;BME280;45172;55.006;73.460;2023-05-08T10:47:53;100476.75;;;22.02;25.79
59375;BME280;45172;55.006;73.460;2023-05-08T10:55:58;100469.63;;;21.99;25.77
59375;BME280;45172;55.006;73.460;2023-05-08T10:58:32;100474.09;;;22.00;25.65
59375;BME280;45172;55.006;73.460;2023-05-08T11:03:26;100478.16;;;21.85;24.48
59375;BME280;45172;55.006;73.460;2023-05-08T11:05:54;100475.34;;;21.88;24.64
59375;BME280;45172;55.006;73.460;2023-05-08T11:08:23;100473.44;;;21.92;24.59
59375;BME280;45172;55.006;73.460;2023-05-08T11:13:32;100474.56;;;21.85;22.78
59375;BME280;45172;55.006;73.460;2023-05-08T11:15:59;100468.22;;;21.86;23.32
59375;BME280;45172;55.006;73.460;2023-05-08T11:18:26;100475.22;;;21.93;22.54
59375;BME280;45172;55.006;73.460;2023-05-08T11:20:59;100472.31;;;22.01;23.27
59375;BME280;45172;55.006;73.460;2023-05-08T11:23:26;100474.69;;;21.80;22.75
59375;BME280;45172;55.006;73.460;2023-05-08T11:28:36;100485.06;;;21.62;22.17
59375;BME280;45172;55.006;73.460;2023-05-08T11:31:05;100496.81;;;21.60;22.00
59375;BME280;45172;55.006;73.460;2023-05-08T11:33:32;100493.84;;;21.38;21.86
59375;BME280;45172;55.006;73.460;2023-05-08T11:36:19;100509.63;;;21.17;21.06
59375;BME280;45172;55.006;73.460;2023-05-08T11:39:07;100502.78;;;21.03;21.51
59375;BME280;45172;55.006;73.460;2023-05-08T11:41:34;100494.81;;;21.00;22.15
59375;BME280;45172;55.006;73.460;2023-05-08T11:46:49;100504.63;;;20.63;21.88
59375;BME280;45172;55.006;73.460;2023-05-08T11:49:19;100498.47;;;20.58;22.32
59375;BME280;45172;55.006;73.460;2023-05-08T11:51:51;100505.06;;;20.45;21.69
59375;BME280;45172;55.006;73.460;2023-05-08T11:54:20;100508.03;;;20.32;21.97
59375;BME280;45172;55.006;73.460;2023-05-08T11:56:48;100505.41;;;20.29;22.26
59375;BME280;45172;55.006;73.460;2023-05-08T11:59:15;100507.44;;;20.18;21.10
59375;BME280;45172;55.006;73.460;2023-05-08T12:01:41;100509.63;;;19.98;20.48
59375;BME280;45172;55.006;73.460;2023-05-08T12:04:09;100512.56;;;19.88;20.31
59375;BME280;45172;55.006;73.460;2023-05-08T12:06:38;100510.06;;;19.77;19.81
59375;BME280;45172;55.006;73.460;2023-05-08T12:09:15;100535.41;;;19.65;19.71
59375;BME280;45172;55.006;73.460;2023-05-08T12:11:57;100518.56;;;19.55;20.01
59375;BME280;45172;55.006;73.460;2023-05-08T12:14:23;100514.97;;;19.54;20.33
59375;BME280;45172;55.006;73.460;2023-05-08T12:16:49;100529.31;;;19.55;20.08
59375;BME280;45172;55.006;73.460;2023-05-08T12:19:15;100524.03;;;19.49;19.69
59375;BME280;45172;55.006;73.460;2023-05-08T12:21:45;100530.41;;;19.43;19.28
59375;BME280;45172;55.006;73.460;2023-05-08T12:24:15;100535.06;;;19.33;19.99
59375;BME280;45172;55.006;73.460;2023-05-08T12:26:47;100527.22;;;19.21;20.14
59375;BME280;45172;55.006;73.460;2023-05-08T12:29:17;100531.72;;;19.20;19.96
59375;BME280;45172;55.006;73.460;2023-05-08T12:31:43;100524.69;;;19.11;20.10
59375;BME280;45172;55.006;73.460;2023-05-08T12:34:09;100527.47;;;19.05;19.78
59375;BME280;45172;55.006;73.460;2023-05-08T12:36:36;100525.72;;;19.04;19.70
59375;BME280;45172;55.006;73.460;2023-05-08T12:39:13;100524.84;;;19.00;20.53
59375;BME280;45172;55.006;73.460;2023-05-08T12:41:49;100517.78;;;18.95;20.02
59375;BME280;45172;55.006;73.460;2023-05-08T12:44:25;100523.22;;;18.90;19.75
59375;BME280;45172;55.006;73.460;2023-05-08T12:46:52;100529.59;;;18.84;20.06
59375;BME280;45172;55.006;73.460;2023-05-08T12:49:24;100526.06;;;18.81;21.16
59375;BME280;45172;55.006;73.460;2023-05-08T12:51:50;100535.91;;;18.79;20.31
59375;BME280;45172;55.006;73.460;2023-05-08T12:54:17;100542.34;;;18.70;20.31
59375;BME280;45172;55.006;73.460;2023-05-08T12:56:43;100531.75;;;18.60;20.84
59375;BME280;45172;55.006;73.460;2023-05-08T12:59:09;100530.75;;;18.68;20.18
59375;BME280;45172;55.006;73.460;2023-05-08T13:01:35;100536.97;;;18.68;20.03
59375;BME280;45172;55.006;73.460;2023-05-08T13:04:06;100534.31;;;18.67;20.62
59375;BME280;45172;55.006;73.460;2023-05-08T13:06:32;100539.75;;;18.62;20.92
59375;BME280;45172;55.006;73.460;2023-05-08T13:08:58;100539.66;;;18.68;20.99
59375;BME280;45172;55.006;73.460;2023-05-08T13:11:31;100545.03;;;18.67;20.53
59375;BME280;45172;55.006;73.460;2023-05-08T13:13:59;100541.28;;;18.79;20.71
59375;BME280;45172;55.006;73.460;2023-05-08T13:16:25;100546.38;;;18.97;21.25
59375;BME280;45172;55.006;73.460;2023-05-08T13:18:51;100550.84;;;18.98;20.30
59375;BME280;45172;55.006;73.460;2023-05-08T13:21:17;100540.19;;;18.90;20.21
59375;BME280;45172;55.006;73.460;2023-05-08T13:23:42;100548.47;;;18.78;20.37
59375;BME280;45172;55.006;73.460;2023-05-08T13:26:08;100545.34;;;18.46;20.75
59375;BME280;45172;55.006;73.460;2023-05-08T13:28:35;100545.69;;;18.21;20.73
59375;BME280;45172;55.006;73.460;2023-05-08T13:31:01;100552.09;;;18.08;20.55
59375;BME280;45172;55.006;73.460;2023-05-08T13:33:27;100555.81;;;17.93;21.88